Decoded Metar for GCFV (FUERTEVENTURA in SPAIN) (IATA:FUE) | Meteo·Mobile Aviation Weather
aviador You're here:

GCFV Decoded Metar

FUERTEVENTURA in SPAIN
Report Time2019-11-16 02:00:00
UTC Time2019-11-16 02:13:58
Flight Rules vfr VFR
Wind350° at 09 kt
W.Decomp.*RWY 01: 8.7 kt HW 2.3 kt LCW
Visibility9999 m
Phenomena:N/A
Clouds:N/A
Expected CloudBase > 2,000 ft AGL from Temp-Dew spread
CeilingNone
Temp17°C (ISA +2)
Dew Point12°C (73% RH)
AAT14.4°C
QNH1017 hPa
Density Alt381 ft
Elevation75 ft
Report Wrong Elevation
Raw Report
GCFV 160200Z AUTO 35009KT 9999 NCD 17/12 Q1017=

Extra information for GCFV:More info

Metar Taf Metar & Taf Last 4 Metars F.Rules Stats Wind Profile Meteogram Temp Stats Airport Information Weather charts Add Link Nearby VenuesMetar ALERT Operation Metar Decoded Social comments